Rechercher aéroport 
image banner adimage banner adimage banner ad
image banner ad

PN03 - Abington Memorial Hospital

Situé à Abington, United States

ICAO - PN03, IATA -

Données fournies par Airmate  

Information générale

Coordonnées: N40°7'9" W75°7'12"
Élévation : 436 feet MSL.
Variation magnétique : -12° East
Voir autres Aéroports à Pennsylvania

Données opérationnelles

Special qualification required
Heure actuelle UTC:
Heure actuelle locale:
Météo à : KPNE - Northeast Philadelphia ( 10 km )
METAR: KPNE 291354Z 15007KT 10SM CLR 23/18 A3002 RMK AO2 SLP165 T02330178
TAF: KPNE 291131Z 2912/3012 17004KT P6SM VCSH BKN080 TEMPO 2912/2913 2SM SHRA OVC040 FM291500 18006KT P6SM BKN035 FM291930 19010KT P6SM -SHRA VCTS BKN045CB TEMPO 2922/3002 VRB10G30KT 2SM TSRA OVC050CB FM300400 25008KT P6SM BKN020
Voir NOTAMs / SUP AIP / TFR affectant cet aéroport [VIEW]
Fréquences de communication: [VIEW]

Pistes:

Coordonnées de l'aéroport

Adresse: Abington United States

Vue satellite de PN03